Time;durP1;ratioP1;P1;durP2;ratioP2;P2;SDS_P1;SDS_P2;PMS_P1;PMS_P2;Temp;Humidity;BMP_temperature;BMP_pressure;BME280_temperature;BME280_humidity;BME280_pressure;Samples;Min_cycle;Max_cycle;Signal;HPM_P1;HPM_P2
2019/12/14 00:00:47;;;;;;;4.750001;1.6;;;;;;;4.18;84.26465;93042.42;;;;
2019/12/14 00:01:57;;;;;;;4.750001;1.6;;;;;;;4.18;84.26465;93042.42;;;;
2019/12/14 00:02:58;;;;;;;4.750001;1.6;;;;;;;4.18;84.26465;93042.42;;;;
2019/12/14 00:04:00;;;;;;;2.8;1.45;;;;;;;4.27;83.72559;93054.67;;;;
2019/12/14 00:05:01;;;;;;;2.8;1.45;;;;;;;4.27;83.72559;93054.67;;;;
2019/12/14 00:06:03;;;;;;;2.8;1.45;;;;;;;4.27;83.72559;93054.67;;;;
2019/12/14 00:07:05;;;;;;;2.8;1.45;;;;;;;4.27;83.72559;93054.67;;;;
2019/12/14 00:08:07;;;;;;;2.8;1.45;;;;;;;4.27;83.72559;93054.67;;;;
2019/12/14 00:09:08;;;;;;;2.8;1.45;;;;;;;4.27;83.72559;93054.67;;;;
2019/12/14 00:10:14;;;;;;;2.8;1.45;;;;;;;4.27;83.72559;93054.67;;;;
2019/12/14 00:11:15;;;;;;;2.8;1.45;;;;;;;4.27;83.72559;93054.67;;;;
2019/12/14 00:12:16;;;;;;;2.8;1.45;;;;;;;4.27;83.72559;93054.67;;;;
2019/12/14 00:13:20;;;;;;;2.8;1.45;;;;;;;4.27;83.72559;93054.67;;;;
2019/12/14 00:14:21;;;;;;;3.550001;1.55;;;;;;;4.26;83.05078;93045.06;;;;
2019/12/14 00:15:22;;;;;;;3.550001;1.55;;;;;;;4.26;83.05078;93045.06;;;;
2019/12/14 00:16:23;;;;;;;3.550001;1.55;;;;;;;4.26;83.05078;93045.06;;;;
2019/12/14 00:17:26;;;;;;;3.550001;1.55;;;;;;;4.26;83.05078;93045.06;;;;
2019/12/14 00:18:27;;;;;;;3.550001;1.55;;;;;;;4.26;83.05078;93045.06;;;;
2019/12/14 00:19:28;;;;;;;3.550001;1.55;;;;;;;4.26;83.05078;93045.06;;;;
2019/12/14 00:20:29;;;;;;;3.550001;1.55;;;;;;;4.26;83.05078;93045.06;;;;
2019/12/14 00:21:30;;;;;;;3.550001;1.55;;;;;;;4.26;83.05078;93045.06;;;;
2019/12/14 00:22:32;;;;;;;3.550001;1.55;;;;;;;4.26;83.05078;93045.06;;;;
2019/12/14 00:23:33;;;;;;;3.550001;1.55;;;;;;;4.26;83.05078;93045.06;;;;
2019/12/14 00:24:34;;;;;;;5.55;1.6;;;;;;;4.28;82.26563;93053.59;;;;
2019/12/14 00:25:35;;;;;;;5.55;1.6;;;;;;;4.28;82.26563;93053.59;;;;
2019/12/14 00:26:36;;;;;;;5.55;1.6;;;;;;;4.28;82.26563;93053.59;;;;
2019/12/14 00:27:37;;;;;;;5.55;1.6;;;;;;;4.28;82.26563;93053.59;;;;
2019/12/14 00:28:38;;;;;;;5.55;1.6;;;;;;;4.28;82.26563;93053.59;;;;
2019/12/14 00:29:39;;;;;;;5.55;1.6;;;;;;;4.28;82.26563;93053.59;;;;
2019/12/14 00:30:40;;;;;;;5.55;1.6;;;;;;;4.28;82.26563;93053.59;;;;
2019/12/14 00:31:41;;;;;;;5.55;1.6;;;;;;;4.28;82.26563;93053.59;;;;
2019/12/14 00:32:42;;;;;;;5.55;1.6;;;;;;;4.28;82.26563;93053.59;;;;
2019/12/14 00:33:44;;;;;;;5.55;1.6;;;;;;;4.28;82.26563;93053.59;;;;
2019/12/14 00:34:45;;;;;;;5.55;1.6;;;;;;;4.28;82.26563;93053.59;;;;
2019/12/14 00:35:46;;;;;;;5.599999;1.65;;;;;;;4.21;81.57813;93044.58;;;;
2019/12/14 00:36:47;;;;;;;5.599999;1.65;;;;;;;4.21;81.57813;93044.58;;;;
2019/12/14 00:37:48;;;;;;;5.599999;1.65;;;;;;;4.21;81.57813;93044.58;;;;
2019/12/14 00:38:49;;;;;;;5.599999;1.65;;;;;;;4.21;81.57813;93044.58;;;;
2019/12/14 00:39:50;;;;;;;5.599999;1.65;;;;;;;4.21;81.57813;93044.58;;;;
2019/12/14 00:40:51;;;;;;;5.599999;1.65;;;;;;;4.21;81.57813;93044.58;;;;
2019/12/14 00:41:52;;;;;;;5.599999;1.65;;;;;;;4.21;81.57813;93044.58;;;;
2019/12/14 00:42:54;;;;;;;5.599999;1.65;;;;;;;4.21;81.57813;93044.58;;;;
2019/12/14 00:43:55;;;;;;;5.599999;1.65;;;;;;;4.21;81.57813;93044.58;;;;
2019/12/14 00:44:56;;;;;;;5.599999;1.65;;;;;;;4.21;81.57813;93044.58;;;;
2019/12/14 00:45:58;;;;;;;3.75;1.5;;;;;;;4.19;80.76563;93032.81;;;;
2019/12/14 00:46:59;;;;;;;3.75;1.5;;;;;;;4.19;80.76563;93032.81;;;;
2019/12/14 00:48:00;;;;;;;3.75;1.5;;;;;;;4.19;80.76563;93032.81;;;;
2019/12/14 00:49:01;;;;;;;3.75;1.5;;;;;;;4.19;80.76563;93032.81;;;;
2019/12/14 00:50:02;;;;;;;3.75;1.5;;;;;;;4.19;80.76563;93032.81;;;;
2019/12/14 00:51:03;;;;;;;3.75;1.5;;;;;;;4.19;80.76563;93032.81;;;;
2019/12/14 00:52:04;;;;;;;3.75;1.5;;;;;;;4.19;80.76563;93032.81;;;;
2019/12/14 00:53:05;;;;;;;3.75;1.5;;;;;;;4.19;80.76563;93032.81;;;;
2019/12/14 00:54:07;;;;;;;3.75;1.5;;;;;;;4.19;80.76563;93032.81;;;;
2019/12/14 00:55:08;;;;;;;3.75;1.5;;;;;;;4.19;80.76563;93032.81;;;;
2019/12/14 00:56:09;;;;;;;3.75;1.5;;;;;;;4.19;80.76563;93032.81;;;;
2019/12/14 00:57:10;;;;;;;4.85;1.3;;;;;;;3.83;80.72852;93009.47;;;;
2019/12/14 00:58:11;;;;;;;4.85;1.3;;;;;;;3.83;80.72852;93009.47;;;;
2019/12/14 00:59:12;;;;;;;4.85;1.3;;;;;;;3.83;80.72852;93009.47;;;;
2019/12/14 01:00:13;;;;;;;4.85;1.3;;;;;;;3.83;80.72852;93009.47;;;;
2019/12/14 01:01:15;;;;;;;4.85;1.3;;;;;;;3.83;80.72852;93009.47;;;;
2019/12/14 01:02:16;;;;;;;4.85;1.3;;;;;;;3.83;80.72852;93009.47;;;;
2019/12/14 01:03:17;;;;;;;4.85;1.3;;;;;;;3.83;80.72852;93009.47;;;;
2019/12/14 01:04:18;;;;;;;4.85;1.3;;;;;;;3.83;80.72852;93009.47;;;;
2019/12/14 01:05:19;;;;;;;4.85;1.3;;;;;;;3.83;80.72852;93009.47;;;;
2019/12/14 01:06:28;;;;;;;4.85;1.3;;;;;;;3.83;80.72852;93009.47;;;;
2019/12/14 01:07:35;;;;;;;4;1.4;;;;;;;3.47;80.71191;92967.99;;;;
2019/12/14 01:08:59;;;;;;;4;1.4;;;;;;;3.47;80.71191;92967.99;;;;
2019/12/14 01:10:10;;;;;;;4;1.4;;;;;;;3.47;80.71191;92967.99;;;;
2019/12/14 01:11:12;;;;;;;4;1.4;;;;;;;3.47;80.71191;92967.99;;;;
2019/12/14 01:12:13;;;;;;;4;1.4;;;;;;;3.47;80.71191;92967.99;;;;
2019/12/14 01:13:14;;;;;;;4;1.4;;;;;;;3.47;80.71191;92967.99;;;;
2019/12/14 01:14:15;;;;;;;4;1.4;;;;;;;3.47;80.71191;92967.99;;;;
2019/12/14 01:15:16;;;;;;;4;1.4;;;;;;;3.47;80.71191;92967.99;;;;
2019/12/14 01:16:18;;;;;;;4;1.4;;;;;;;3.47;80.71191;92967.99;;;;
2019/12/14 01:17:19;;;;;;;4;1.4;;;;;;;3.47;80.71191;92967.99;;;;
2019/12/14 01:18:22;;;;;;;3.05;1.2;;;;;;;3.14;80.59961;92955.06;;;;
2019/12/14 01:19:23;;;;;;;3.05;1.2;;;;;;;3.14;80.59961;92955.06;;;;
2019/12/14 01:20:24;;;;;;;3.05;1.2;;;;;;;3.14;80.59961;92955.06;;;;
2019/12/14 01:21:25;;;;;;;3.05;1.2;;;;;;;3.14;80.59961;92955.06;;;;
2019/12/14 01:22:26;;;;;;;3.05;1.2;;;;;;;3.14;80.59961;92955.06;;;;
2019/12/14 01:23:27;;;;;;;3.05;1.2;;;;;;;3.14;80.59961;92955.06;;;;
2019/12/14 01:24:28;;;;;;;3.05;1.2;;;;;;;3.14;80.59961;92955.06;;;;
2019/12/14 01:25:30;;;;;;;3.05;1.2;;;;;;;3.14;80.59961;92955.06;;;;
2019/12/14 01:26:31;;;;;;;3.05;1.2;;;;;;;3.14;80.59961;92955.06;;;;
2019/12/14 01:27:32;;;;;;;3.05;1.2;;;;;;;3.14;80.59961;92955.06;;;;
2019/12/14 01:28:33;;;;;;;4.45;1.25;;;;;;;2.9;80.65039;93006.97;;;;
2019/12/14 01:29:35;;;;;;;4.45;1.25;;;;;;;2.9;80.65039;93006.97;;;;
2019/12/14 01:30:36;;;;;;;4.45;1.25;;;;;;;2.9;80.65039;93006.97;;;;
2019/12/14 01:31:38;;;;;;;4.45;1.25;;;;;;;2.9;80.65039;93006.97;;;;
2019/12/14 01:32:39;;;;;;;4.45;1.25;;;;;;;2.9;80.65039;93006.97;;;;
2019/12/14 01:33:40;;;;;;;4.45;1.25;;;;;;;2.9;80.65039;93006.97;;;;
2019/12/14 01:34:41;;;;;;;4.45;1.25;;;;;;;2.9;80.65039;93006.97;;;;
2019/12/14 01:35:43;;;;;;;4.45;1.25;;;;;;;2.9;80.65039;93006.97;;;;
2019/12/14 01:36:44;;;;;;;4.45;1.25;;;;;;;2.9;80.65039;93006.97;;;;
2019/12/14 01:37:46;;;;;;;4.45;1.25;;;;;;;2.9;80.65039;93006.97;;;;
2019/12/14 01:38:47;;;;;;;4.45;1.25;;;;;;;2.9;80.65039;93006.97;;;;
2019/12/14 01:39:48;;;;;;;3.05;1.2;;;;;;;2.73;80.43848;93031.52;;;;
2019/12/14 01:40:49;;;;;;;3.05;1.2;;;;;;;2.73;80.43848;93031.52;;;;
2019/12/14 01:41:50;;;;;;;3.05;1.2;;;;;;;2.73;80.43848;93031.52;;;;
2019/12/14 01:42:51;;;;;;;3.05;1.2;;;;;;;2.73;80.43848;93031.52;;;;
2019/12/14 01:43:53;;;;;;;3.05;1.2;;;;;;;2.73;80.43848;93031.52;;;;
2019/12/14 01:44:54;;;;;;;3.05;1.2;;;;;;;2.73;80.43848;93031.52;;;;
2019/12/14 01:45:55;;;;;;;3.05;1.2;;;;;;;2.73;80.43848;93031.52;;;;
2019/12/14 01:46:56;;;;;;;3.05;1.2;;;;;;;2.73;80.43848;93031.52;;;;
2019/12/14 01:47:57;;;;;;;3.05;1.2;;;;;;;2.73;80.43848;93031.52;;;;
2019/12/14 01:48:58;;;;;;;3.05;1.2;;;;;;;2.73;80.43848;93031.52;;;;
2019/12/14 01:49:59;;;;;;;3.149999;1.5;;;;;;;2.53;80.54785;93053.02;;;;
2019/12/14 01:51:00;;;;;;;3.149999;1.5;;;;;;;2.53;80.54785;93053.02;;;;
2019/12/14 01:52:01;;;;;;;3.149999;1.5;;;;;;;2.53;80.54785;93053.02;;;;
2019/12/14 01:53:03;;;;;;;3.149999;1.5;;;;;;;2.53;80.54785;93053.02;;;;
2019/12/14 01:54:04;;;;;;;3.149999;1.5;;;;;;;2.53;80.54785;93053.02;;;;
2019/12/14 01:55:05;;;;;;;3.149999;1.5;;;;;;;2.53;80.54785;93053.02;;;;
2019/12/14 01:56:06;;;;;;;3.149999;1.5;;;;;;;2.53;80.54785;93053.02;;;;
2019/12/14 01:57:07;;;;;;;3.149999;1.5;;;;;;;2.53;80.54785;93053.02;;;;
2019/12/14 01:58:08;;;;;;;3.149999;1.5;;;;;;;2.53;80.54785;93053.02;;;;
2019/12/14 01:59:09;;;;;;;3.149999;1.5;;;;;;;2.53;80.54785;93053.02;;;;
2019/12/14 02:00:10;;;;;;;3.55;1.4;;;;;;;2.43;80.75;93062.55;;;;
2019/12/14 02:01:24;;;;;;;3.55;1.4;;;;;;;2.43;80.75;93062.55;;;;
2019/12/14 02:03:03;;;;;;;3.55;1.4;;;;;;;2.43;80.75;93062.55;;;;
2019/12/14 02:04:07;;;;;;;3.55;1.4;;;;;;;2.43;80.75;93062.55;;;;
2019/12/14 02:05:18;;;;;;;3.55;1.4;;;;;;;2.43;80.75;93062.55;;;;
2019/12/14 02:06:23;;;;;;;3.55;1.4;;;;;;;2.43;80.75;93062.55;;;;
2019/12/14 02:07:25;;;;;;;3.55;1.4;;;;;;;2.43;80.75;93062.55;;;;
2019/12/14 02:08:26;;;;;;;3.55;1.4;;;;;;;2.43;80.75;93062.55;;;;
2019/12/14 02:09:27;;;;;;;3.55;1.4;;;;;;;2.43;80.75;93062.55;;;;
2019/12/14 02:10:29;;;;;;;3.55;1.4;;;;;;;2.43;80.75;93062.55;;;;
2019/12/14 02:11:31;;;;;;;3.45;1.3;;;;;;;2.25;80.81934;93043.22;;;;
2019/12/14 02:12:32;;;;;;;3.45;1.3;;;;;;;2.25;80.81934;93043.22;;;;
2019/12/14 02:13:33;;;;;;;3.45;1.3;;;;;;;2.25;80.81934;93043.22;;;;
2019/12/14 02:14:35;;;;;;;3.45;1.3;;;;;;;2.25;80.81934;93043.22;;;;
2019/12/14 02:15:36;;;;;;;3.45;1.3;;;;;;;2.25;80.81934;93043.22;;;;
2019/12/14 02:16:37;;;;;;;3.45;1.3;;;;;;;2.25;80.81934;93043.22;;;;
2019/12/14 02:17:40;;;;;;;3.45;1.3;;;;;;;2.25;80.81934;93043.22;;;;
2019/12/14 02:18:41;;;;;;;3.45;1.3;;;;;;;2.25;80.81934;93043.22;;;;
2019/12/14 02:19:42;;;;;;;3.45;1.3;;;;;;;2.25;80.81934;93043.22;;;;
2019/12/14 02:20:43;;;;;;;3.45;1.3;;;;;;;2.25;80.81934;93043.22;;;;
2019/12/14 02:21:45;;;;;;;2.95;1.3;;;;;;;2.22;80.86816;93029.06;;;;
2019/12/14 02:22:46;;;;;;;2.95;1.3;;;;;;;2.22;80.86816;93029.06;;;;
2019/12/14 02:23:47;;;;;;;2.95;1.3;;;;;;;2.22;80.86816;93029.06;;;;
2019/12/14 02:24:48;;;;;;;2.95;1.3;;;;;;;2.22;80.86816;93029.06;;;;
2019/12/14 02:25:50;;;;;;;2.95;1.3;;;;;;;2.22;80.86816;93029.06;;;;
2019/12/14 02:26:51;;;;;;;2.95;1.3;;;;;;;2.22;80.86816;93029.06;;;;
2019/12/14 02:27:52;;;;;;;2.95;1.3;;;;;;;2.22;80.86816;93029.06;;;;
2019/12/14 02:28:53;;;;;;;2.95;1.3;;;;;;;2.22;80.86816;93029.06;;;;
2019/12/14 02:29:55;;;;;;;2.95;1.3;;;;;;;2.22;80.86816;93029.06;;;;
2019/12/14 02:30:56;;;;;;;2.95;1.3;;;;;;;2.22;80.86816;93029.06;;;;
2019/12/14 02:31:57;;;;;;;4.85;1.35;;;;;;;2.25;80.89258;93023.25;;;;
2019/12/14 02:32:58;;;;;;;4.85;1.35;;;;;;;2.25;80.89258;93023.25;;;;
2019/12/14 02:33:59;;;;;;;4.85;1.35;;;;;;;2.25;80.89258;93023.25;;;;
2019/12/14 02:35:00;;;;;;;4.85;1.35;;;;;;;2.25;80.89258;93023.25;;;;
2019/12/14 02:36:01;;;;;;;4.85;1.35;;;;;;;2.25;80.89258;93023.25;;;;
2019/12/14 02:37:03;;;;;;;4.85;1.35;;;;;;;2.25;80.89258;93023.25;;;;
2019/12/14 02:38:05;;;;;;;4.85;1.35;;;;;;;2.25;80.89258;93023.25;;;;
2019/12/14 02:39:06;;;;;;;4.85;1.35;;;;;;;2.25;80.89258;93023.25;;;;
2019/12/14 02:40:08;;;;;;;4.85;1.35;;;;;;;2.25;80.89258;93023.25;;;;
2019/12/14 02:41:09;;;;;;;4.85;1.35;;;;;;;2.25;80.89258;93023.25;;;;
2019/12/14 02:42:11;;;;;;;4.85;1.35;;;;;;;2.25;80.89258;93023.25;;;;
2019/12/14 02:43:12;;;;;;;3.95;1.25;;;;;;;2.36;80.83008;93021.59;;;;
2019/12/14 02:44:14;;;;;;;3.95;1.25;;;;;;;2.36;80.83008;93021.59;;;;
2019/12/14 02:45:15;;;;;;;3.95;1.25;;;;;;;2.36;80.83008;93021.59;;;;
2019/12/14 02:46:16;;;;;;;3.95;1.25;;;;;;;2.36;80.83008;93021.59;;;;
2019/12/14 02:47:17;;;;;;;3.95;1.25;;;;;;;2.36;80.83008;93021.59;;;;
2019/12/14 02:48:18;;;;;;;3.95;1.25;;;;;;;2.36;80.83008;93021.59;;;;
2019/12/14 02:49:20;;;;;;;3.95;1.25;;;;;;;2.36;80.83008;93021.59;;;;
2019/12/14 02:50:21;;;;;;;3.95;1.25;;;;;;;2.36;80.83008;93021.59;;;;
2019/12/14 02:51:22;;;;;;;3.95;1.25;;;;;;;2.36;80.83008;93021.59;;;;
2019/12/14 02:52:23;;;;;;;3.95;1.25;;;;;;;2.36;80.83008;93021.59;;;;
2019/12/14 02:53:24;;;;;;;4;1.35;;;;;;;2.36;80.6416;92990.83;;;;
2019/12/14 02:54:25;;;;;;;4;1.35;;;;;;;2.36;80.6416;92990.83;;;;
2019/12/14 02:55:26;;;;;;;4;1.35;;;;;;;2.36;80.6416;92990.83;;;;
2019/12/14 02:56:28;;;;;;;4;1.35;;;;;;;2.36;80.6416;92990.83;;;;
2019/12/14 02:57:29;;;;;;;4;1.35;;;;;;;2.36;80.6416;92990.83;;;;
2019/12/14 02:58:30;;;;;;;4;1.35;;;;;;;2.36;80.6416;92990.83;;;;
2019/12/14 02:59:31;;;;;;;4;1.35;;;;;;;2.36;80.6416;92990.83;;;;
2019/12/14 03:00:32;;;;;;;4;1.35;;;;;;;2.36;80.6416;92990.83;;;;
2019/12/14 03:01:34;;;;;;;4;1.35;;;;;;;2.36;80.6416;92990.83;;;;
2019/12/14 03:02:35;;;;;;;4;1.35;;;;;;;2.36;80.6416;92990.83;;;;
2019/12/14 03:03:36;;;;;;;4;1.35;;;;;;;2.36;80.6416;92990.83;;;;
2019/12/14 03:04:37;;;;;;;2.65;1.1;;;;;;;2.35;80.79492;92972.03;;;;
2019/12/14 03:05:38;;;;;;;2.65;1.1;;;;;;;2.35;80.79492;92972.03;;;;
2019/12/14 03:06:39;;;;;;;2.65;1.1;;;;;;;2.35;80.79492;92972.03;;;;
2019/12/14 03:07:41;;;;;;;2.65;1.1;;;;;;;2.35;80.79492;92972.03;;;;
2019/12/14 03:08:42;;;;;;;2.65;1.1;;;;;;;2.35;80.79492;92972.03;;;;
2019/12/14 03:09:43;;;;;;;2.65;1.1;;;;;;;2.35;80.79492;92972.03;;;;
2019/12/14 03:10:45;;;;;;;2.65;1.1;;;;;;;2.35;80.79492;92972.03;;;;
2019/12/14 03:11:46;;;;;;;2.65;1.1;;;;;;;2.35;80.79492;92972.03;;;;
2019/12/14 03:12:47;;;;;;;2.65;1.1;;;;;;;2.35;80.79492;92972.03;;;;
2019/12/14 03:13:49;;;;;;;2.65;1.1;;;;;;;2.35;80.79492;92972.03;;;;
2019/12/14 03:14:50;;;;;;;2.849999;1.2;;;;;;;2.35;80.85156;92978.58;;;;
2019/12/14 03:15:52;;;;;;;2.849999;1.2;;;;;;;2.35;80.85156;92978.58;;;;
2019/12/14 03:16:53;;;;;;;2.849999;1.2;;;;;;;2.35;80.85156;92978.58;;;;
2019/12/14 03:17:54;;;;;;;2.849999;1.2;;;;;;;2.35;80.85156;92978.58;;;;
2019/12/14 03:18:55;;;;;;;2.849999;1.2;;;;;;;2.35;80.85156;92978.58;;;;
2019/12/14 03:19:56;;;;;;;2.849999;1.2;;;;;;;2.35;80.85156;92978.58;;;;
2019/12/14 03:20:58;;;;;;;2.849999;1.2;;;;;;;2.35;80.85156;92978.58;;;;
2019/12/14 03:21:59;;;;;;;2.849999;1.2;;;;;;;2.35;80.85156;92978.58;;;;
2019/12/14 03:23:00;;;;;;;2.849999;1.2;;;;;;;2.35;80.85156;92978.58;;;;
2019/12/14 03:24:02;;;;;;;2.849999;1.2;;;;;;;2.35;80.85156;92978.58;;;;
2019/12/14 03:25:05;;;;;;;3.85;1.9;;;;;;;2.24;80.86133;92951.11;;;;
2019/12/14 03:31:15;;;;;;;3.85;1.9;;;;;;;2.24;80.86133;92951.11;;;;
2019/12/14 03:32:16;;;;;;;3.85;1.9;;;;;;;2.24;80.86133;92951.11;;;;
2019/12/14 03:33:17;;;;;;;3.85;1.9;;;;;;;2.24;80.86133;92951.11;;;;
2019/12/14 03:34:18;;;;;;;3.85;1.9;;;;;;;2.24;80.86133;92951.11;;;;
2019/12/14 03:35:20;;;;;;;3.85;1.9;;;;;;;2.24;80.86133;92951.11;;;;
2019/12/14 03:36:21;;;;;;;3.6;1.4;;;;;;;2.14;80.98828;92931.78;;;;
2019/12/14 03:37:22;;;;;;;3.6;1.4;;;;;;;2.14;80.98828;92931.78;;;;
2019/12/14 03:38:23;;;;;;;3.6;1.4;;;;;;;2.14;80.98828;92931.78;;;;
2019/12/14 03:39:24;;;;;;;3.6;1.4;;;;;;;2.14;80.98828;92931.78;;;;
2019/12/14 03:40:25;;;;;;;3.6;1.4;;;;;;;2.14;80.98828;92931.78;;;;
2019/12/14 03:41:26;;;;;;;3.6;1.4;;;;;;;2.14;80.98828;92931.78;;;;
2019/12/14 03:42:35;;;;;;;3.6;1.4;;;;;;;2.14;80.98828;92931.78;;;;
2019/12/14 03:43:40;;;;;;;3.6;1.4;;;;;;;2.14;80.98828;92931.78;;;;
2019/12/14 03:44:42;;;;;;;3.6;1.4;;;;;;;2.14;80.98828;92931.78;;;;
2019/12/14 03:45:50;;;;;;;3.6;1.4;;;;;;;2.14;80.98828;92931.78;;;;
2019/12/14 03:46:55;;;;;;;5.299999;1.5;;;;;;;1.96;80.99512;92929.49;;;;
2019/12/14 03:48:03;;;;;;;5.299999;1.5;;;;;;;1.96;80.99512;92929.49;;;;
2019/12/14 03:49:05;;;;;;;5.299999;1.5;;;;;;;1.96;80.99512;92929.49;;;;
2019/12/14 03:50:09;;;;;;;5.299999;1.5;;;;;;;1.96;80.99512;92929.49;;;;
2019/12/14 03:51:12;;;;;;;5.299999;1.5;;;;;;;1.96;80.99512;92929.49;;;;
2019/12/14 03:52:16;;;;;;;5.299999;1.5;;;;;;;1.96;80.99512;92929.49;;;;
2019/12/14 03:53:18;;;;;;;5.299999;1.5;;;;;;;1.96;80.99512;92929.49;;;;
2019/12/14 03:54:21;;;;;;;5.299999;1.5;;;;;;;1.96;80.99512;92929.49;;;;
2019/12/14 03:55:27;;;;;;;5.299999;1.5;;;;;;;1.96;80.99512;92929.49;;;;
2019/12/14 03:56:30;;;;;;;5.299999;1.5;;;;;;;1.96;80.99512;92929.49;;;;
2019/12/14 03:57:32;;;;;;;2.6;1.1;;;;;;;1.76;81.44043;92954.28;;;;
2019/12/14 03:58:33;;;;;;;2.6;1.1;;;;;;;1.76;81.44043;92954.28;;;;
2019/12/14 03:59:38;;;;;;;2.6;1.1;;;;;;;1.76;81.44043;92954.28;;;;
2019/12/14 04:00:44;;;;;;;2.6;1.1;;;;;;;1.76;81.44043;92954.28;;;;
2019/12/14 04:01:49;;;;;;;2.6;1.1;;;;;;;1.76;81.44043;92954.28;;;;
2019/12/14 04:02:54;;;;;;;2.6;1.1;;;;;;;1.76;81.44043;92954.28;;;;
2019/12/14 04:03:57;;;;;;;2.6;1.1;;;;;;;1.76;81.44043;92954.28;;;;
2019/12/14 04:04:59;;;;;;;2.6;1.1;;;;;;;1.76;81.44043;92954.28;;;;
2019/12/14 04:06:04;;;;;;;2.6;1.1;;;;;;;1.76;81.44043;92954.28;;;;
2019/12/14 04:07:09;;;;;;;2.6;1.1;;;;;;;1.76;81.44043;92954.28;;;;
2019/12/14 04:08:10;;;;;;;2.95;1.2;;;;;;;1.9;81.32031;92935.66;;;;
2019/12/14 04:09:12;;;;;;;2.95;1.2;;;;;;;1.9;81.32031;92935.66;;;;
2019/12/14 04:10:13;;;;;;;2.95;1.2;;;;;;;1.9;81.32031;92935.66;;;;
2019/12/14 04:11:14;;;;;;;2.95;1.2;;;;;;;1.9;81.32031;92935.66;;;;
2019/12/14 04:12:15;;;;;;;2.95;1.2;;;;;;;1.9;81.32031;92935.66;;;;
2019/12/14 04:13:16;;;;;;;2.95;1.2;;;;;;;1.9;81.32031;92935.66;;;;
2019/12/14 04:14:17;;;;;;;2.95;1.2;;;;;;;1.9;81.32031;92935.66;;;;
2019/12/14 04:15:18;;;;;;;2.95;1.2;;;;;;;1.9;81.32031;92935.66;;;;
2019/12/14 04:16:19;;;;;;;2.95;1.2;;;;;;;1.9;81.32031;92935.66;;;;
2019/12/14 04:17:21;;;;;;;2.95;1.2;;;;;;;1.9;81.32031;92935.66;;;;
2019/12/14 04:18:22;;;;;;;2.8;1.1;;;;;;;2.16;80.88672;92938.59;;;;
2019/12/14 04:19:23;;;;;;;2.8;1.1;;;;;;;2.16;80.88672;92938.59;;;;
2019/12/14 04:20:24;;;;;;;2.8;1.1;;;;;;;2.16;80.88672;92938.59;;;;
2019/12/14 04:21:25;;;;;;;2.8;1.1;;;;;;;2.16;80.88672;92938.59;;;;
2019/12/14 04:22:26;;;;;;;2.8;1.1;;;;;;;2.16;80.88672;92938.59;;;;
2019/12/14 04:23:27;;;;;;;2.8;1.1;;;;;;;2.16;80.88672;92938.59;;;;
2019/12/14 04:24:29;;;;;;;2.8;1.1;;;;;;;2.16;80.88672;92938.59;;;;
2019/12/14 04:25:30;;;;;;;2.8;1.1;;;;;;;2.16;80.88672;92938.59;;;;
2019/12/14 04:26:35;;;;;;;2.8;1.1;;;;;;;2.16;80.88672;92938.59;;;;
2019/12/14 04:27:38;;;;;;;2.8;1.1;;;;;;;2.16;80.88672;92938.59;;;;
2019/12/14 04:28:40;;;;;;;3.3;1.2;;;;;;;2.33;80.65527;92928.87;;;;
2019/12/14 04:30:58;;;;;;;3.3;1.2;;;;;;;2.33;80.65527;92928.87;;;;
2019/12/14 04:32:10;;;;;;;3.3;1.2;;;;;;;2.33;80.65527;92928.87;;;;
2019/12/14 04:33:12;;;;;;;3.3;1.2;;;;;;;2.33;80.65527;92928.87;;;;
2019/12/14 04:34:20;;;;;;;3.3;1.2;;;;;;;2.33;80.65527;92928.87;;;;
2019/12/14 04:35:47;;;;;;;3.3;1.2;;;;;;;2.33;80.65527;92928.87;;;;
2019/12/14 04:36:56;;;;;;;3.3;1.2;;;;;;;2.33;80.65527;92928.87;;;;
2019/12/14 04:38:17;;;;;;;3.3;1.2;;;;;;;2.33;80.65527;92928.87;;;;
2019/12/14 04:39:21;;;;;;;3.149999;1.05;;;;;;;2.58;80.16016;92928.72;;;;
2019/12/14 04:40:27;;;;;;;3.149999;1.05;;;;;;;2.58;80.16016;92928.72;;;;
2019/12/14 04:41:31;;;;;;;3.149999;1.05;;;;;;;2.58;80.16016;92928.72;;;;
2019/12/14 04:42:39;;;;;;;3.149999;1.05;;;;;;;2.58;80.16016;92928.72;;;;
2019/12/14 04:43:45;;;;;;;3.149999;1.05;;;;;;;2.58;80.16016;92928.72;;;;
2019/12/14 04:44:48;;;;;;;3.149999;1.05;;;;;;;2.58;80.16016;92928.72;;;;
2019/12/14 04:45:52;;;;;;;3.149999;1.05;;;;;;;2.58;80.16016;92928.72;;;;
2019/12/14 04:46:54;;;;;;;3.149999;1.05;;;;;;;2.58;80.16016;92928.72;;;;
2019/12/14 04:47:55;;;;;;;3.149999;1.05;;;;;;;2.58;80.16016;92928.72;;;;
2019/12/14 04:48:56;;;;;;;3.149999;1.05;;;;;;;2.58;80.16016;92928.72;;;;
2019/12/14 04:49:57;;;;;;;1.2;0.9;;;;;;;2.83;79.63965;92970.37;;;;
2019/12/14 04:50:58;;;;;;;1.2;0.9;;;;;;;2.83;79.63965;92970.37;;;;
2019/12/14 04:51:59;;;;;;;1.2;0.9;;;;;;;2.83;79.63965;92970.37;;;;
2019/12/14 04:53:00;;;;;;;1.2;0.9;;;;;;;2.83;79.63965;92970.37;;;;
2019/12/14 04:54:02;;;;;;;1.2;0.9;;;;;;;2.83;79.63965;92970.37;;;;
2019/12/14 04:55:03;;;;;;;1.2;0.9;;;;;;;2.83;79.63965;92970.37;;;;
2019/12/14 04:56:04;;;;;;;1.2;0.9;;;;;;;2.83;79.63965;92970.37;;;;
2019/12/14 04:57:05;;;;;;;1.2;0.9;;;;;;;2.83;79.63965;92970.37;;;;
2019/12/14 04:58:06;;;;;;;1.2;0.9;;;;;;;2.83;79.63965;92970.37;;;;
2019/12/14 04:59:07;;;;;;;1.2;0.9;;;;;;;2.83;79.63965;92970.37;;;;
2019/12/14 05:00:08;;;;;;;1.2;0.9;;;;;;;2.83;79.63965;92970.37;;;;
2019/12/14 05:01:10;;;;;;;1.2;0.9;;;;;;;2.88;81.80859;92926.61;;;;
2019/12/14 05:02:11;;;;;;;1.2;0.9;;;;;;;2.88;81.80859;92926.61;;;;
2019/12/14 05:03:12;;;;;;;1.2;0.9;;;;;;;2.88;81.80859;92926.61;;;;
2019/12/14 05:04:13;;;;;;;1.2;0.9;;;;;;;2.88;81.80859;92926.61;;;;
2019/12/14 05:05:14;;;;;;;1.2;0.9;;;;;;;2.88;81.80859;92926.61;;;;
2019/12/14 05:06:15;;;;;;;1.2;0.9;;;;;;;2.88;81.80859;92926.61;;;;
2019/12/14 05:07:18;;;;;;;1.2;0.9;;;;;;;2.88;81.80859;92926.61;;;;
2019/12/14 05:08:19;;;;;;;1.2;0.9;;;;;;;2.88;81.80859;92926.61;;;;
2019/12/14 05:09:20;;;;;;;1.2;0.9;;;;;;;2.88;81.80859;92926.61;;;;
2019/12/14 05:10:21;;;;;;;1.2;0.9;;;;;;;2.88;81.80859;92926.61;;;;
2019/12/14 05:11:22;;;;;;;1.2;0.9;;;;;;;2.88;81.80859;92926.61;;;;
2019/12/14 05:12:23;;;;;;;1.2;0.9;;;;;;;2.88;81.80859;92926.61;;;;
2019/12/14 05:13:24;;;;;;;1.2;0.9;;;;;;;2.88;81.80859;92926.61;;;;
2019/12/14 05:14:26;;;;;;;1.2;0.9;;;;;;;2.88;81.80859;92926.61;;;;
2019/12/14 05:15:27;;;;;;;1.2;0.9;;;;;;;2.88;81.80859;92926.61;;;;
2019/12/14 05:16:28;;;;;;;1.2;0.9;;;;;;;2.88;81.80859;92926.61;;;;
2019/12/14 05:17:29;;;;;;;1.2;0.9;;;;;;;2.88;81.80859;92926.61;;;;
2019/12/14 05:18:30;;;;;;;1.2;0.9;;;;;;;2.88;81.80859;92926.61;;;;
2019/12/14 05:19:31;;;;;;;1.2;0.9;;;;;;;2.88;81.80859;92926.61;;;;
2019/12/14 05:20:32;;;;;;;1.2;0.9;;;;;;;2.88;81.80859;92926.61;;;;
2019/12/14 05:21:33;;;;;;;1.2;0.9;;;;;;;2.88;81.80859;92926.61;;;;
2019/12/14 05:22:34;;;;;;;2.7;1;;;;;;;2.44;83.59961;92872.47;;;;
2019/12/14 05:23:35;;;;;;;2.7;1;;;;;;;2.44;83.59961;92872.47;;;;
2019/12/14 05:24:37;;;;;;;2.7;1;;;;;;;2.44;83.59961;92872.47;;;;
2019/12/14 05:25:38;;;;;;;2.7;1;;;;;;;2.44;83.59961;92872.47;;;;
2019/12/14 05:26:39;;;;;;;2.7;1;;;;;;;2.44;83.59961;92872.47;;;;
2019/12/14 05:27:40;;;;;;;2.7;1;;;;;;;2.44;83.59961;92872.47;;;;
2019/12/14 05:28:41;;;;;;;2.7;1;;;;;;;2.44;83.59961;92872.47;;;;
2019/12/14 05:29:42;;;;;;;2.7;1;;;;;;;2.44;83.59961;92872.47;;;;
2019/12/14 05:30:43;;;;;;;2.7;1;;;;;;;2.44;83.59961;92872.47;;;;
2019/12/14 05:31:44;;;;;;;2.7;1;;;;;;;2.44;83.59961;92872.47;;;;
2019/12/14 05:32:45;;;;;;;3.85;1.25;;;;;;;2.26;84.83008;92849.7;;;;
2019/12/14 05:33:46;;;;;;;3.85;1.25;;;;;;;2.26;84.83008;92849.7;;;;
2019/12/14 05:34:47;;;;;;;3.85;1.25;;;;;;;2.26;84.83008;92849.7;;;;
2019/12/14 05:35:49;;;;;;;3.85;1.25;;;;;;;2.26;84.83008;92849.7;;;;
2019/12/14 05:36:50;;;;;;;3.85;1.25;;;;;;;2.26;84.83008;92849.7;;;;
2019/12/14 05:37:51;;;;;;;3.85;1.25;;;;;;;2.26;84.83008;92849.7;;;;
2019/12/14 05:38:52;;;;;;;3.85;1.25;;;;;;;2.26;84.83008;92849.7;;;;
2019/12/14 05:39:53;;;;;;;3.85;1.25;;;;;;;2.26;84.83008;92849.7;;;;
2019/12/14 05:40:54;;;;;;;3.85;1.25;;;;;;;2.26;84.83008;92849.7;;;;
2019/12/14 05:41:55;;;;;;;3.85;1.25;;;;;;;2.26;84.83008;92849.7;;;;
2019/12/14 05:42:56;;;;;;;3.85;1.25;;;;;;;2.26;84.83008;92849.7;;;;
2019/12/14 05:43:57;;;;;;;2.9;1.3;;;;;;;2.23;86.21582;92848.74;;;;
2019/12/14 05:44:58;;;;;;;2.9;1.3;;;;;;;2.23;86.21582;92848.74;;;;
2019/12/14 05:45:59;;;;;;;2.9;1.3;;;;;;;2.23;86.21582;92848.74;;;;
2019/12/14 05:47:01;;;;;;;2.9;1.3;;;;;;;2.23;86.21582;92848.74;;;;
2019/12/14 05:48:02;;;;;;;2.9;1.3;;;;;;;2.23;86.21582;92848.74;;;;
2019/12/14 05:49:03;;;;;;;2.9;1.3;;;;;;;2.23;86.21582;92848.74;;;;
2019/12/14 05:50:04;;;;;;;2.9;1.3;;;;;;;2.23;86.21582;92848.74;;;;
2019/12/14 05:51:05;;;;;;;2.9;1.3;;;;;;;2.23;86.21582;92848.74;;;;
2019/12/14 05:52:06;;;;;;;2.9;1.3;;;;;;;2.23;86.21582;92848.74;;;;
2019/12/14 05:53:07;;;;;;;2.9;1.3;;;;;;;2.23;86.21582;92848.74;;;;
2019/12/14 05:54:08;;;;;;;2.9;1.3;;;;;;;2.23;86.21582;92848.74;;;;
2019/12/14 05:55:09;;;;;;;2.9;1.3;;;;;;;2.23;86.21582;92848.74;;;;
2019/12/14 05:56:10;;;;;;;2.9;1.3;;;;;;;2.23;86.21582;92848.74;;;;
2019/12/14 05:57:11;;;;;;;2.9;1.3;;;;;;;2.23;86.21582;92848.74;;;;
2019/12/14 05:58:13;;;;;;;2.9;1.3;;;;;;;2.23;86.21582;92848.74;;;;
2019/12/14 05:59:14;;;;;;;2.9;1.3;;;;;;;2.23;86.21582;92848.74;;;;
2019/12/14 06:00:15;;;;;;;2.9;1.3;;;;;;;2.23;86.21582;92848.74;;;;
2019/12/14 06:01:16;;;;;;;2.9;1.3;;;;;;;2.23;86.21582;92848.74;;;;
2019/12/14 06:02:17;;;;;;;2.9;1.3;;;;;;;2.23;86.21582;92848.74;;;;
2019/12/14 06:03:18;;;;;;;2.9;1.3;;;;;;;2.23;86.21582;92848.74;;;;
2019/12/14 06:04:19;;;;;;;2.9;1.3;;;;;;;2.23;86.21582;92848.74;;;;
2019/12/14 06:05:20;;;;;;;2.9;1;;;;;;;2.3;87.75586;92809.99;;;;
2019/12/14 06:06:21;;;;;;;2.9;1;;;;;;;2.3;87.75586;92809.99;;;;